.
WxDataArchive / Data Records for 2013-06-17
2013-06-16 June 2013 2013-06-18

Data Records for Monday, 17 June 2013

Time	Temp	Chill	HIndex	Humid	Dewpt	 Wind 	HiWind	WindDir	Rain 	Barom 
-----	----	-----	------	-----	-----	------	------	-------	-----	----- 
00:00	68.8	68.8	68.8	88	65.1	0	0	---	0.00	29.898 
00:05	68.6	68.6	68.6	88	64.9	0	0	---	0.00	29.898 
00:10	68.4	68.4	68.4	89	65.0	0	0	---	0.00	29.898 
00:15	68.4	68.4	68.4	89	65.0	0	0	---	0.00	29.902 
00:20	68.3	68.3	68.3	90	65.2	0	0	---	0.00	29.902 
00:25	68.3	68.3	68.3	90	65.2	0	0	---	0.00	29.902 
00:30	68.3	68.3	68.3	90	65.2	0	0	---	0.00	29.905 
00:35	68.4	68.4	68.4	91	65.7	0	0	---	0.00	29.905 
00:40	68.4	68.4	68.4	91	65.7	0	0	---	0.00	29.905 
00:45	68.4	68.4	68.4	91	65.7	0	0	---	0.00	29.909 
00:50	68.4	68.4	68.4	91	65.7	0	0	---	0.00	29.909 
00:55	68.3	68.3	68.3	91	65.6	0	0	---	0.00	29.909 
01:00	68.3	68.3	68.3	91	65.6	0	0	---	0.00	29.909 
01:05	68.4	68.4	68.4	92	66.0	0	0	---	0.00	29.909 
01:10	68.4	68.4	68.4	92	66.0	0	0	---	0.00	29.909 
01:15	68.4	68.4	68.4	92	66.0	0	0	---	0.00	29.912 
01:20	68.3	68.3	68.3	92	65.9	0	0	---	0.00	29.912 
01:25	68.3	68.3	68.3	92	65.9	0	0	---	0.00	29.912 
01:30	68.3	68.3	68.3	92	65.9	0	0	---	0.00	29.906 
01:35	68.3	68.3	68.3	92	65.9	0	0	---	0.00	29.906 
01:40	68.3	68.3	68.3	92	65.9	0	0	---	0.00	29.906 
01:45	68.3	68.3	68.3	92	65.9	0	0	---	0.00	29.903 
01:50	68.3	68.3	68.3	92	65.9	0	0	---	0.00	29.903 
01:55	68.3	68.3	68.3	92	65.9	0	0	---	0.00	29.903 
02:00	68.6	68.6	68.6	92	66.2	0	1	292	0.00	29.906 
02:05	68.9	68.9	68.9	92	66.5	0	1	292	0.00	29.906 
02:10	69.1	69.1	69.1	92	66.7	0	1	292	0.00	29.906 
02:15	69.1	69.1	69.1	91	66.4	0	1	292	0.00	29.897 
02:20	69.1	69.1	69.1	90	66.0	0	0	---	0.00	29.897 
02:25	68.9	68.9	68.9	89	65.5	0	0	---	0.00	29.897 
02:30	68.8	68.8	68.8	89	65.4	0	0	---	0.00	29.893 
02:35	68.6	68.6	68.6	88	64.9	0	0	---	0.00	29.893 
02:40	68.4	68.4	68.4	88	64.7	0	0	---	0.00	29.893 
02:45	68.3	68.3	68.3	88	64.6	0	0	---	0.00	29.893 
02:50	68.3	68.3	68.3	88	64.6	0	0	---	0.00	29.893 
02:55	68.4	68.4	68.4	89	65.0	0	1	292	0.00	29.893 
03:00	68.6	68.6	68.6	89	65.2	0	0	---	0.00	29.895 
03:05	68.8	68.8	68.8	89	65.4	0	0	---	0.00	29.895 
03:10	68.9	68.9	68.9	90	65.8	0	1	292	0.00	29.895 
03:15	68.9	68.9	68.9	90	65.8	0	0	---	0.00	29.899 
03:20	68.9	68.9	68.9	90	65.8	0	0	---	0.00	29.899 
03:25	68.9	68.9	68.9	90	65.8	0	0	---	0.00	29.899 
03:30	68.9	68.9	68.9	91	66.2	0	0	---	0.00	29.900 
03:35	68.8	68.8	68.8	91	66.1	0	0	---	0.00	29.900 
03:40	68.8	68.8	68.8	91	66.1	0	0	---	0.00	29.900 
03:45	68.6	68.6	68.6	91	65.9	0	0	---	0.00	29.898 
03:50	68.6	68.6	68.6	91	65.9	0	0	---	0.00	29.898 
03:55	68.4	68.4	68.4	91	65.7	0	0	---	0.00	29.898 
04:00	68.4	68.4	68.4	92	66.0	0	0	---	0.00	29.900 
04:05	68.4	68.4	68.4	92	66.0	0	0	---	0.00	29.900 
04:10	68.4	68.4	68.4	92	66.0	0	0	---	0.00	29.900 
04:15	68.4	68.4	68.4	92	66.0	0	0	---	0.00	29.888 
04:20	68.4	68.4	68.4	92	66.0	0	0	---	0.00	29.888 
04:25	68.4	68.4	68.4	92	66.0	0	1	292	0.00	29.888 
04:30	68.3	68.3	68.3	92	65.9	0	1	292	0.00	29.891 
04:35	68.3	68.3	68.3	92	65.9	0	0	---	0.00	29.891 
04:40	68.1	68.1	68.1	92	65.7	0	0	---	0.00	29.891 
04:45	68.1	68.1	68.1	92	65.7	0	0	---	0.00	29.890 
04:50	68.1	68.1	68.1	92	65.7	0	0	---	0.00	29.890 
04:55	67.9	67.9	67.9	92	65.5	0	0	---	0.00	29.890 
05:00	67.9	67.9	67.9	93	65.8	0	0	---	0.00	29.898 
05:05	67.9	67.9	67.9	93	65.8	0	0	---	0.00	29.898 
05:10	67.8	67.8	67.8	93	65.7	0	0	---	0.00	29.898 
05:15	67.8	67.8	67.8	93	65.7	0	0	---	0.00	29.901 
05:20	67.9	67.9	67.9	93	65.8	0	0	---	0.00	29.901 
05:25	67.9	67.9	67.9	93	65.8	0	0	---	0.00	29.901 
05:30	67.9	67.9	67.9	93	65.8	0	0	---	0.00	29.903 
05:35	67.9	67.9	67.9	93	65.8	0	0	---	0.00	29.903 
05:40	67.9	67.9	67.9	93	65.8	0	0	---	0.00	29.903 
05:45	67.9	67.9	67.9	94	66.1	0	0	---	0.00	29.904 
05:50	67.9	67.9	67.9	94	66.1	0	0	---	0.00	29.904 
05:55	68.1	68.1	68.1	94	66.3	0	1	292	0.00	29.904 
06:00	68.1	68.1	68.1	94	66.3	0	0	---	0.00	29.908 
06:05	68.3	68.3	68.3	94	66.5	0	1	292	0.00	29.908 
06:10	68.3	68.3	68.3	94	66.5	0	0	---	0.00	29.908 
06:15	68.3	68.3	68.3	94	66.5	0	1	292	0.00	29.910 
06:20	68.3	68.3	68.3	94	66.5	0	2	292	0.00	29.910 
06:25	68.3	68.3	68.3	94	66.5	0	1	292	0.00	29.910 
06:30	68.3	68.3	68.3	94	66.5	0	3	292	0.00	29.911 
06:35	68.3	68.3	68.3	94	66.5	0	2	292	0.00	29.911 
06:40	68.3	68.3	68.3	94	66.5	0	1	292	0.00	29.911 
06:45	68.3	68.3	68.3	94	66.5	0	2	292	0.00	29.907 
06:50	68.3	68.3	68.3	94	66.5	0	0	---	0.00	29.907 
06:55	68.3	68.3	68.3	94	66.5	0	1	292	0.00	29.907 
07:00	68.3	68.3	68.3	94	66.5	0	1	292	0.00	29.902 
07:05	68.3	68.3	68.3	94	66.5	0	2	292	0.00	29.902 
07:10	68.3	68.3	68.3	94	66.5	0	1	292	0.00	29.902 
07:15	68.3	68.3	68.3	94	66.5	0	1	292	0.00	29.901 
07:20	68.4	68.4	68.4	94	66.6	0	2	292	0.00	29.901 
07:25	68.4	68.4	68.4	94	66.6	0	2	292	0.00	29.901 
07:30	68.4	68.4	68.4	94	66.6	0	1	292	0.00	29.901 
07:35	68.4	68.4	68.4	94	66.6	0	0	---	0.00	29.901 
07:40	68.4	68.4	68.4	94	66.6	0	1	292	0.00	29.901 
07:45	68.4	68.4	68.4	94	66.6	0	0	---	0.00	29.895 
07:50	68.4	68.4	68.4	94	66.6	0	1	292	0.00	29.895 
07:55	68.6	68.6	68.6	94	66.8	0	1	292	0.00	29.895 
08:00	68.6	68.6	68.6	94	66.8	0	1	292	0.00	29.900 
08:05	68.8	68.8	68.8	94	67.0	0	2	292	0.00	29.900 
08:10	68.9	68.9	68.9	94	67.1	0	2	292	0.00	29.900 
08:15	68.9	68.9	68.9	94	67.1	0	3	292	0.00	29.903 
08:20	68.9	68.9	68.9	94	67.1	0	2	292	0.00	29.903 
08:25	69.1	69.1	69.1	94	67.3	0	1	292	0.00	29.903 
08:30	69.1	69.1	69.1	93	67.0	1	4	292	0.00	29.915 
08:35	69.3	69.3	69.3	93	67.2	0	1	292	0.00	29.915 
08:40	69.4	69.4	69.4	93	67.3	1	3	292	0.00	29.915 
08:45	69.6	69.6	69.6	93	67.5	1	3	292	0.00	29.914 
08:50	69.9	69.9	69.9	92	67.5	1	3	292	0.00	29.914 
08:55	70.6	70.6	70.6	92	68.2	1	2	292	0.00	29.914 
09:00	70.8	70.8	70.8	90	67.7	1	4	292	0.00	29.914 
09:05	71.1	71.1	71.1	89	67.7	0	2	292	0.00	29.914 
09:10	71.5	71.5	71.5	88	67.7	1	2	292	0.00	29.914 
09:15	72.0	72.0	72.0	87	67.9	1	4	292	0.00	29.918 
09:20	72.7	72.7	72.7	86	68.3	0	1	292	0.00	29.918 
09:25	72.8	72.8	72.8	84	67.7	1	4	292	0.00	29.918 
09:30	72.8	72.8	72.8	83	67.3	1	3	292	0.00	29.918 
09:35	73.3	73.3	73.3	83	67.8	1	2	292	0.00	29.918 
09:40	73.5	73.5	73.5	82	67.7	1	4	292	0.00	29.918 
09:45	73.9	73.9	73.9	81	67.7	1	3	292	0.00	29.916 
09:50	74.2	74.2	74.2	80	67.6	1	2	292	0.00	29.916 
09:55	74.4	74.4	74.4	78	67.1	1	3	292	0.00	29.916 
10:00	74.6	74.6	74.6	79	67.6	1	2	292	0.00	29.914 
10:05	74.9	74.9	74.9	78	67.6	1	3	292	0.00	29.914 
10:10	75.1	75.1	76.1	77	67.4	1	2	292	0.00	29.914 
10:15	75.4	75.4	76.5	76	67.3	1	3	292	0.00	29.916 
10:20	75.6	75.6	76.9	75	67.1	0	2	292	0.00	29.916 
10:25	75.8	75.8	77.0	76	67.7	1	3	292	0.00	29.916 
10:30	76.3	76.3	77.7	75	67.8	1	3	315	0.00	29.917 
10:35	76.3	76.3	77.8	74	67.4	1	3	315	0.00	29.917 
10:40	76.7	76.7	78.3	74	67.8	1	2	315	0.00	29.917 
10:45	76.8	76.8	78.4	74	67.9	0	2	315	0.00	29.911 
10:50	77.2	77.2	79.0	74	68.3	1	2	315	0.00	29.911 
10:55	77.6	77.6	79.5	71	67.4	1	3	315	0.00	29.911 
11:00	77.9	77.9	80.0	73	68.5	0	1	315	0.00	29.910 
11:05	78.1	78.1	80.1	68	66.7	1	3	315	0.00	29.910 
11:10	78.3	78.3	80.3	68	66.8	2	4	315	0.00	29.910 
11:15	78.3	78.3	80.2	66	66.0	1	4	315	0.00	29.917 
11:20	78.3	78.3	80.2	64	65.1	1	3	315	0.00	29.917 
11:25	78.6	78.6	80.5	64	65.4	1	3	315	0.00	29.917 
11:30	79.0	79.0	81.0	64	65.8	1	3	315	0.00	29.915 
11:35	79.4	79.4	81.2	61	64.8	1	3	315	0.00	29.915 
11:40	79.4	79.4	81.2	61	64.8	1	3	315	0.00	29.915 
11:45	79.6	79.6	81.3	59	64.0	1	4	315	0.00	29.915 
11:50	79.8	79.8	81.5	59	64.2	1	3	292	0.00	29.915 
11:55	79.9	79.9	81.5	58	63.8	0	3	292	0.00	29.915 
12:00	80.5	80.5	82.4	60	65.3	1	3	292	0.00	29.914 
12:05	80.7	80.7	82.3	57	64.0	1	3	292	0.00	29.914 
12:10	80.9	80.9	82.5	57	64.2	1	4	315	0.00	29.914 
12:15	81.1	81.1	82.9	58	64.9	1	3	315	0.00	29.913 
12:20	81.2	81.2	82.5	54	62.9	1	4	315	0.00	29.913 
12:25	81.6	81.6	83.4	57	64.9	1	4	315	0.00	29.913 
12:30	81.8	81.8	83.6	57	65.0	1	2	315	0.00	29.905 
12:35	82.0	82.0	83.1	52	62.6	1	3	315	0.00	29.905 
12:40	82.4	82.4	84.2	56	65.1	1	3	315	0.00	29.905 
12:45	82.6	82.6	84.1	54	64.2	1	3	315	0.00	29.902 
12:50	83.0	83.0	84.5	53	64.1	0	2	315	0.00	29.902 
12:55	83.0	83.0	83.2	46	60.1	1	5	315	0.00	29.902 
13:00	83.2	83.2	83.8	48	61.4	1	3	270	0.00	29.900 
13:05	83.2	83.2	83.8	48	61.4	1	3	270	0.00	29.900 
13:10	83.2	83.2	83.4	46	60.2	1	3	270	0.00	29.900 
13:15	83.2	83.2	83.6	47	60.8	1	5	315	0.00	29.897 
13:20	83.4	83.4	83.3	44	59.2	0	2	315	0.00	29.897 
13:25	83.6	83.6	83.7	45	60.0	0	2	315	0.00	29.897 
13:30	83.6	83.6	83.4	43	58.7	2	4	315	0.00	29.898 
13:35	83.4	83.4	83.7	46	60.4	2	5	315	0.00	29.898 
13:40	83.4	83.4	83.5	45	59.8	1	3	270	0.00	29.898 
13:45	83.4	83.4	83.3	44	59.2	1	3	270	0.00	29.896 
13:50	83.8	83.8	83.2	41	57.6	1	3	270	0.00	29.896 
13:55	84.0	84.0	83.3	40	57.0	2	4	270	0.00	29.896 
14:00	83.8	83.8	82.8	38	55.5	1	4	270	0.00	29.895 
14:05	84.0	84.0	83.3	40	57.0	0	3	270	0.00	29.895 
14:10	84.1	84.1	82.9	37	55.0	1	3	270	0.00	29.895 
14:15	84.3	84.3	83.4	39	56.6	1	3	270	0.00	29.897 
14:20	84.5	84.5	83.6	39	56.8	1	3	270	0.00	29.897 
14:25	84.7	84.7	83.4	36	54.8	0	2	270	0.00	29.897 
14:30	84.9	84.9	83.3	34	53.4	1	3	270	0.00	29.894 
14:35	84.5	84.5	82.8	33	52.2	2	4	270	0.00	29.894 
14:40	84.5	84.5	83.3	37	55.3	1	2	292	0.00	29.894 
14:45	84.7	84.7	83.2	35	54.0	0	2	292	0.00	29.890 
14:50	84.7	84.7	83.2	35	54.0	1	3	292	0.00	29.890 
14:55	84.5	84.5	82.8	33	52.2	0	2	292	0.00	29.890 
15:00	84.7	84.7	83.5	37	55.5	0	2	292	0.00	29.886 
15:05	84.5	84.5	83.0	35	53.8	2	4	292	0.00	29.886 
15:10	84.5	84.5	83.2	36	54.6	1	2	292	0.00	29.886 
15:15	84.5	84.5	83.0	35	53.8	1	4	292	0.00	29.888 
15:20	84.9	84.9	83.9	38	56.4	0	2	292	0.00	29.888 
15:25	85.1	85.1	83.9	37	55.9	0	2	292	0.00	29.888 
15:30	84.9	84.9	84.0	39	57.1	1	4	292	0.00	29.887 
15:35	85.1	85.1	84.3	39	57.3	1	3	292	0.00	29.887 
15:40	85.3	85.3	84.5	39	57.5	0	1	292	0.00	29.887 
15:45	85.3	85.3	84.5	39	57.5	0	3	292	0.00	29.883 
15:50	85.5	85.5	84.5	38	57.0	1	2	292	0.00	29.883 
15:55	85.3	85.3	84.0	36	55.3	1	3	292	0.00	29.883 
16:00	85.1	85.1	83.9	37	55.9	2	6	315	0.00	29.881 
16:05	85.1	85.1	83.6	35	54.3	1	6	315	0.00	29.881 
16:10	85.3	85.3	84.5	39	57.5	1	4	315	0.00	29.881 
16:15	85.3	85.3	83.6	34	53.7	1	4	315	0.00	29.877 
16:20	84.9	84.9	83.3	34	53.4	1	2	270	0.00	29.877 
16:25	84.7	84.7	83.2	35	54.0	0	2	270	0.00	29.877 
16:30	84.7	84.7	83.5	37	55.5	0	1	270	0.00	29.870 
16:35	84.7	84.7	83.5	37	55.5	0	2	270	0.00	29.870 
16:40	84.7	84.7	83.7	38	56.2	1	2	270	0.00	29.870 
16:45	84.7	84.7	83.4	36	54.8	1	3	270	0.00	29.868 
16:50	84.7	84.7	83.5	37	55.5	0	2	270	0.00	29.868 
16:55	84.7	84.7	83.2	35	54.0	1	3	270	0.00	29.868 
17:00	84.7	84.7	83.4	36	54.8	1	3	270	0.00	29.862 
17:05	84.7	84.7	83.4	36	54.8	2	3	292	0.00	29.862 
17:10	84.9	84.9	84.2	40	57.8	1	3	292	0.00	29.862 
17:15	85.5	85.5	84.7	39	57.7	1	3	292	0.00	29.850 
17:20	85.5	85.5	84.3	37	56.2	1	3	292	0.00	29.850 
17:25	85.3	85.3	84.5	39	57.5	1	2	292	0.00	29.850 
17:30	85.3	85.3	84.3	38	56.8	1	3	292	0.00	29.852 
17:35	85.3	85.3	84.5	39	57.5	1	3	292	0.00	29.852 
17:40	84.9	84.9	83.4	35	54.2	1	3	292	0.00	29.852 
17:45	84.9	84.9	83.7	37	55.7	0	2	292	0.00	29.850 
17:50	84.9	84.9	83.7	37	55.7	0	3	292	0.00	29.850 
17:55	84.7	84.7	83.5	37	55.5	1	3	292	0.00	29.850 
18:00	84.5	84.5	83.5	38	56.1	0	2	292	0.00	29.851 
18:05	84.3	84.3	83.1	37	55.2	1	3	292	0.00	29.851 
18:10	84.1	84.1	82.9	37	55.0	0	1	292	0.00	29.851 
18:15	84.0	84.0	82.7	36	54.1	0	2	292	0.00	29.851 
18:20	84.0	84.0	83.0	38	55.6	0	1	292	0.00	29.851 
18:25	84.0	84.0	82.8	37	54.9	0	1	292	0.00	29.851 
18:30	83.8	83.8	82.8	38	55.5	0	1	292	0.00	29.849 
18:35	83.8	83.8	82.5	36	54.0	0	1	292	0.00	29.849 
18:40	83.6	83.6	82.6	38	55.3	0	1	292	0.00	29.849 
18:45	83.4	83.4	82.4	38	55.1	0	2	292	0.00	29.851 
18:50	83.4	83.4	82.6	39	55.8	0	1	292	0.00	29.851 
18:55	83.2	83.2	82.4	39	55.6	0	1	292	0.00	29.851 
19:00	83.0	83.0	82.3	40	56.2	0	1	292	0.00	29.854 
19:05	83.2	83.2	82.4	39	55.6	1	2	292	0.00	29.854 
19:10	83.2	83.2	82.5	40	56.3	0	1	292	0.00	29.854 
19:15	83.2	83.2	82.5	40	56.3	1	2	292	0.00	29.853 
19:20	83.2	83.2	82.5	40	56.3	0	2	292	0.00	29.853 
19:25	83.2	83.2	82.5	40	56.3	0	1	292	0.00	29.853 
19:30	83.0	83.0	82.2	39	55.5	1	3	292	0.00	29.852 
19:35	83.0	83.0	82.3	40	56.2	0	1	292	0.00	29.852 
19:40	82.6	82.6	82.1	41	56.5	0	1	292	0.00	29.852 
19:45	82.4	82.4	81.9	41	56.3	0	1	292	0.00	29.856 
19:50	82.0	82.0	81.8	43	57.3	0	1	292	0.00	29.856 
19:55	81.8	81.8	81.6	43	57.1	0	0	---	0.00	29.856 
20:00	81.4	81.4	81.3	43	56.7	0	1	292	0.00	29.857 
20:05	81.2	81.2	81.1	43	56.5	0	0	---	0.00	29.857 
20:10	81.1	81.1	81.0	43	56.5	0	0	---	0.00	29.857 
20:15	80.9	80.9	81.0	44	56.9	0	0	---	0.00	29.850 
20:20	80.5	80.5	80.7	45	57.2	0	0	---	0.00	29.850 
20:25	80.3	80.3	80.5	44	56.4	0	0	---	0.00	29.850 
20:30	79.9	79.9	80.2	44	56.0	0	0	---	0.00	29.851 
20:35	79.6	79.6	80.0	45	56.4	0	0	---	0.00	29.851 
20:40	79.4	79.4	79.8	44	55.6	0	0	---	0.00	29.851 
20:45	79.0	79.0	79.6	45	55.8	0	0	---	0.00	29.853 
20:50	78.8	78.8	79.6	47	56.8	0	0	---	0.00	29.853 
20:55	78.5	78.5	79.5	48	57.2	0	0	---	0.00	29.853 
21:00	77.9	77.9	79.2	50	57.7	0	0	---	0.00	29.857 
21:05	77.4	77.4	78.8	49	56.7	0	0	---	0.00	29.857 
21:10	77.0	77.0	78.6	50	56.9	0	0	---	0.00	29.857 
21:15	76.7	76.7	78.4	51	57.2	0	0	---	0.00	29.851 
21:20	76.3	76.3	78.2	52	57.4	0	0	---	0.00	29.851 
21:25	76.0	76.0	78.1	54	58.1	0	0	---	0.00	29.851 
21:30	75.6	75.6	77.8	55	58.3	0	0	---	0.00	29.854 
21:35	75.3	75.3	77.7	56	58.5	0	0	---	0.00	29.854 
21:40	74.9	74.9	74.9	56	58.1	0	0	---	0.00	29.854 
21:45	74.4	74.4	74.4	57	58.2	0	0	---	0.00	29.851 
21:50	74.2	74.2	74.2	59	58.9	0	0	---	0.00	29.851 
21:55	73.9	73.9	73.9	60	59.1	0	0	---	0.00	29.851 
22:00	73.7	73.7	73.7	60	58.9	0	0	---	0.00	29.854 
22:05	73.5	73.5	73.5	60	58.7	0	0	---	0.00	29.854 
22:10	73.3	73.3	73.3	61	59.0	0	1	292	0.00	29.854 
22:15	73.2	73.2	73.2	62	59.4	0	0	---	0.00	29.854 
22:20	73.0	73.0	73.0	62	59.2	0	0	---	0.00	29.854 
22:25	72.7	72.7	72.7	61	58.5	0	0	---	0.00	29.854 
22:30	72.5	72.5	72.5	62	58.7	0	0	---	0.00	29.858 
22:35	72.5	72.5	72.5	63	59.2	0	0	---	0.00	29.858 
22:40	72.3	72.3	72.3	64	59.4	0	0	---	0.00	29.858 
22:45	72.1	72.1	72.1	64	59.2	0	0	---	0.00	29.855 
22:50	72.0	72.0	72.0	64	59.1	0	0	---	0.00	29.855 
22:55	71.8	71.8	71.8	64	59.0	0	0	---	0.00	29.855 
23:00	71.6	71.6	71.6	65	59.2	0	0	---	0.00	29.860 
23:05	71.5	71.5	71.5	65	59.1	0	0	---	0.00	29.860 
23:10	71.3	71.3	71.3	66	59.3	0	0	---	0.00	29.860 
23:15	71.3	71.3	71.3	66	59.3	0	0	---	0.00	29.858 
23:20	71.1	71.1	71.1	67	59.6	0	0	---	0.00	29.858 
23:25	70.9	70.9	70.9	68	59.8	0	0	---	0.00	29.858 
23:30	70.9	70.9	70.9	69	60.2	0	0	---	0.00	29.860 
23:35	70.8	70.8	70.8	69	60.1	0	0	---	0.00	29.860 
23:40	70.6	70.6	70.6	69	59.9	0	0	---	0.00	29.860 
23:45	70.6	70.6	70.6	70	60.3	0	0	---	0.00	29.855 
23:50	70.4	70.4	70.4	70	60.1	0	0	---	0.00	29.855 
23:55	70.3	70.3	70.3	70	60.0	0	0	---	0.00	29.855 

CoCoRaHS
IN-AL-39
A2 Web Hosting
Creative Commons License
GoDaddy
search engine by freefind advanced

loaded 2018-11-17 22:23:59 • last modified 2010-11-18 10:43:29
Privacy PolicyDisclaimer
• wx.awcolley.com is powered by PmWiki v.2002016 •
• all content (unless otherwise noted) © 2018 A W Colley